createdAt,value
2022-11-02T00:01:34.303Z,100844.00
2022-11-02T00:04:00.801Z,100828.00
2022-11-02T00:06:27.255Z,100836.00
2022-11-02T00:08:53.699Z,100838.00
2022-11-02T00:11:20.180Z,100843.00
2022-11-02T00:13:47.035Z,100847.00
2022-11-02T00:16:15.645Z,100850.00
2022-11-02T00:18:43.058Z,100851.00
2022-11-02T00:21:10.792Z,100844.00
2022-11-02T00:23:37.257Z,100844.00
2022-11-02T00:26:03.792Z,100838.00
2022-11-02T00:28:30.796Z,100845.00
2022-11-02T00:30:57.656Z,100843.00
2022-11-02T00:33:26.361Z,100847.00
2022-11-02T00:35:54.121Z,100849.00
2022-11-02T00:38:20.609Z,100844.00
2022-11-02T00:40:47.043Z,100834.00
2022-11-02T00:43:13.808Z,100837.00
2022-11-02T00:45:40.259Z,100849.00
2022-11-02T00:48:07.105Z,100854.00
2022-11-02T00:50:33.747Z,100848.00
2022-11-02T00:53:00.284Z,100850.00
2022-11-02T00:55:27.540Z,100846.00
2022-11-02T00:57:59.029Z,100845.00
2022-11-02T01:00:25.521Z,100845.00
2022-11-02T01:02:52.032Z,100847.00
2022-11-02T01:05:18.618Z,100839.00
2022-11-02T01:07:47.214Z,100853.00
2022-11-02T01:10:13.719Z,100848.00
2022-11-02T01:12:40.776Z,100847.00
2022-11-02T01:15:10.450Z,100853.00
2022-11-02T01:17:38.071Z,100843.00
2022-11-02T01:20:05.734Z,100838.00
2022-11-02T01:22:32.236Z,100828.00
2022-11-02T01:24:58.725Z,100834.00
2022-11-02T01:27:26.271Z,100826.00
2022-11-02T01:29:53.101Z,100835.00
2022-11-02T01:32:19.590Z,100837.00
2022-11-02T01:34:46.120Z,100855.00
2022-11-02T01:37:12.631Z,100860.00
2022-11-02T01:39:39.088Z,100849.00
2022-11-02T01:42:29.569Z,100850.00
2022-11-02T01:44:56.231Z,100844.00
2022-11-02T01:47:27.197Z,100835.00
2022-11-02T01:49:57.738Z,100837.00
2022-11-02T01:52:32.472Z,100837.00
2022-11-02T01:55:16.574Z,100838.00
2022-11-02T01:57:47.562Z,100831.00
2022-11-02T02:00:16.623Z,100819.00
2022-11-02T02:03:02.743Z,100826.00
2022-11-02T02:05:30.996Z,100822.00
2022-11-02T02:07:58.135Z,100830.00
2022-11-02T02:10:24.795Z,100817.00
2022-11-02T02:12:51.412Z,100814.00
2022-11-02T02:15:22.789Z,100824.00
2022-11-02T02:17:59.782Z,100817.00
2022-11-02T02:20:35.515Z,100822.00
2022-11-02T02:23:39.264Z,100818.00
2022-11-02T02:26:20.929Z,100820.00
2022-11-02T02:28:53.158Z,100813.00
2022-11-02T02:31:26.782Z,100817.00
2022-11-02T02:34:18.246Z,100816.00
2022-11-02T02:37:07.048Z,100819.00
2022-11-02T02:39:43.054Z,100814.00
2022-11-02T02:42:13.808Z,100804.00
2022-11-02T02:44:43.858Z,100810.00
2022-11-02T02:47:17.476Z,100801.00
2022-11-02T02:50:02.762Z,100800.00
2022-11-02T02:52:30.775Z,100800.00
2022-11-02T02:54:59.032Z,100798.00
2022-11-02T02:57:27.947Z,100807.00
2022-11-02T02:59:55.065Z,100802.00
2022-11-02T03:02:26.947Z,100805.00
2022-11-02T03:04:53.505Z,100802.00
2022-11-02T03:07:32.788Z,100795.00
2022-11-02T03:10:12.869Z,100800.00
2022-11-02T03:12:57.926Z,100803.00
2022-11-02T03:15:45.614Z,100803.00
2022-11-02T03:18:21.045Z,100797.00
2022-11-02T03:21:36.205Z,100796.00
2022-11-02T03:24:30.518Z,100799.00
2022-11-02T03:27:10.587Z,100798.00
2022-11-02T03:30:10.191Z,100797.00
2022-11-02T03:32:41.704Z,100797.00
2022-11-02T03:35:16.482Z,100801.00
2022-11-02T03:37:51.573Z,100799.00
2022-11-02T03:40:22.564Z,100802.00
2022-11-02T03:42:49.986Z,100808.00
2022-11-02T03:45:20.055Z,100806.00
2022-11-02T03:47:52.083Z,100798.00
2022-11-02T03:50:20.859Z,100805.00
2022-11-02T03:52:50.422Z,100805.00
2022-11-02T03:55:25.468Z,100797.00
2022-11-02T03:57:52.364Z,100813.00
2022-11-02T04:00:25.327Z,100799.00
2022-11-02T04:03:00.097Z,100800.00
2022-11-02T04:05:36.553Z,100792.00
2022-11-02T04:08:21.664Z,100792.00
2022-11-02T04:11:11.358Z,100798.00
2022-11-02T04:13:57.834Z,100795.00
2022-11-02T04:16:28.354Z,100797.00
2022-11-02T04:19:15.076Z,100797.00
2022-11-02T04:22:03.019Z,100798.00
2022-11-02T04:24:50.330Z,100796.00
2022-11-02T04:27:20.966Z,100793.00
2022-11-02T04:29:48.790Z,100803.00
2022-11-02T04:32:35.560Z,100801.00
2022-11-02T04:35:04.351Z,100800.00
2022-11-02T04:37:49.640Z,100792.00
2022-11-02T04:40:16.261Z,100793.00
2022-11-02T04:42:46.966Z,100797.00
2022-11-02T04:45:13.597Z,100781.00
2022-11-02T04:47:40.790Z,100787.00
2022-11-02T04:50:07.524Z,100782.00
2022-11-02T04:52:34.117Z,100797.00
2022-11-02T04:55:00.666Z,100798.00
2022-11-02T04:57:27.371Z,100800.00
2022-11-02T04:59:54.555Z,100803.00
2022-11-02T05:02:21.224Z,100798.00
2022-11-02T05:04:48.148Z,100795.00
2022-11-02T05:07:15.244Z,100789.00
2022-11-02T05:09:44.767Z,100796.00
2022-11-02T05:12:12.874Z,100803.00
2022-11-02T05:14:40.167Z,100804.00
2022-11-02T05:17:07.203Z,100796.00
2022-11-02T05:19:35.395Z,100808.00
2022-11-02T05:22:03.138Z,100800.00
2022-11-02T05:24:30.261Z,100807.00
2022-11-02T05:26:56.866Z,100806.00
2022-11-02T05:29:26.548Z,100804.00
2022-11-02T05:31:53.274Z,100802.00
2022-11-02T05:34:19.964Z,100813.00
2022-11-02T05:36:48.163Z,100816.00
2022-11-02T05:39:15.488Z,100810.00
2022-11-02T05:41:42.028Z,100809.00
2022-11-02T05:44:08.617Z,100810.00
2022-11-02T05:46:38.372Z,100805.00
2022-11-02T05:49:04.965Z,100802.00
2022-11-02T05:51:31.419Z,100807.00
2022-11-02T05:53:57.914Z,100803.00
2022-11-02T05:56:25.355Z,100812.00
2022-11-02T05:58:54.215Z,100816.00
2022-11-02T06:01:21.288Z,100805.00
2022-11-02T06:03:53.207Z,100797.00
2022-11-02T06:06:20.425Z,100791.00
2022-11-02T06:08:46.910Z,100796.00
2022-11-02T06:11:14.045Z,100797.00
2022-11-02T06:13:41.527Z,100803.00
2022-11-02T06:16:09.514Z,100820.00
2022-11-02T06:18:36.922Z,100811.00
2022-11-02T06:21:03.634Z,100802.00
2022-11-02T06:23:30.734Z,100813.00
2022-11-02T06:25:58.854Z,100805.00
2022-11-02T06:28:25.898Z,100814.00
2022-11-02T06:30:52.679Z,100816.00
2022-11-02T06:33:19.590Z,100808.00
2022-11-02T06:35:51.429Z,100813.00
2022-11-02T06:38:18.320Z,100815.00
2022-11-02T06:40:59.396Z,100820.00
2022-11-02T06:43:26.396Z,100816.00
2022-11-02T06:45:56.907Z,100818.00
2022-11-02T06:48:25.026Z,100809.00
2022-11-02T06:50:53.109Z,100810.00
2022-11-02T06:53:19.554Z,100823.00
2022-11-02T06:55:51.695Z,100829.00
2022-11-02T06:58:18.154Z,100833.00
2022-11-02T07:00:45.026Z,100829.00
2022-11-02T07:03:11.650Z,100832.00
2022-11-02T07:05:38.177Z,100844.00
2022-11-02T07:08:04.753Z,100832.00
2022-11-02T07:10:31.994Z,100832.00
2022-11-02T07:12:58.715Z,100832.00
2022-11-02T07:15:26.328Z,100838.00
2022-11-02T07:17:54.197Z,100836.00
2022-11-02T07:20:20.853Z,100835.00
2022-11-02T07:22:58.340Z,100834.00
2022-11-02T07:25:27.100Z,100829.00
2022-11-02T07:27:54.248Z,100832.00
2022-11-02T07:30:21.046Z,100837.00
2022-11-02T07:32:47.599Z,100834.00
2022-11-02T07:35:15.922Z,100833.00
2022-11-02T07:37:42.776Z,100825.00
2022-11-02T07:40:11.374Z,100832.00
2022-11-02T07:42:46.122Z,100825.00
2022-11-02T07:45:13.123Z,100830.00
2022-11-02T07:47:46.491Z,100844.00
2022-11-02T07:50:14.187Z,100835.00
2022-11-02T07:52:45.223Z,100829.00
2022-11-02T07:55:12.955Z,100845.00
2022-11-02T07:57:39.493Z,100839.00
2022-11-02T08:00:06.862Z,100836.00
2022-11-02T08:02:39.029Z,100834.00
2022-11-02T08:05:06.111Z,100844.00
2022-11-02T08:07:32.608Z,100837.00
2022-11-02T08:09:59.150Z,100845.00
2022-11-02T08:12:25.625Z,100838.00
2022-11-02T08:14:52.120Z,100836.00
2022-11-02T08:17:18.679Z,100855.00
2022-11-02T08:19:45.140Z,100844.00
2022-11-02T08:22:11.880Z,100844.00
2022-11-02T08:24:38.324Z,100833.00
2022-11-02T08:27:05.104Z,100853.00
2022-11-02T08:29:31.850Z,100839.00
2022-11-02T08:31:58.349Z,100848.00
2022-11-02T08:34:24.915Z,100853.00
2022-11-02T08:36:51.359Z,100857.00
2022-11-02T08:39:19.233Z,100858.00
2022-11-02T08:41:45.763Z,100856.00
2022-11-02T08:44:12.228Z,100855.00
2022-11-02T08:46:38.678Z,100848.00
2022-11-02T08:49:05.210Z,100845.00
2022-11-02T08:51:31.891Z,100851.00
2022-11-02T08:53:58.449Z,100853.00
2022-11-02T08:56:24.990Z,100853.00
2022-11-02T08:58:51.476Z,100856.00
2022-11-02T09:01:20.635Z,100852.00
2022-11-02T09:03:47.178Z,100851.00
2022-11-02T09:06:13.620Z,100853.00
2022-11-02T09:08:40.171Z,100860.00
2022-11-02T09:11:06.892Z,100850.00
2022-11-02T09:13:33.454Z,100849.00
2022-11-02T09:16:00.394Z,100851.00
2022-11-02T09:18:27.114Z,100855.00
2022-11-02T09:20:53.631Z,100852.00
2022-11-02T09:23:20.757Z,100853.00
2022-11-02T09:25:47.683Z,100863.00
2022-11-02T09:28:15.475Z,100867.00
2022-11-02T09:30:56.601Z,100863.00
2022-11-02T09:33:23.032Z,100866.00
2022-11-02T09:35:49.754Z,100857.00
2022-11-02T09:38:18.520Z,100868.00
2022-11-02T09:40:53.541Z,100860.00
2022-11-02T09:43:26.060Z,100868.00
2022-11-02T09:46:16.197Z,100872.00
2022-11-02T09:48:51.052Z,100865.00
2022-11-02T09:51:38.156Z,100859.00
2022-11-02T09:54:41.984Z,100867.00
2022-11-02T09:57:14.046Z,100861.00
2022-11-02T09:59:40.900Z,100861.00
2022-11-02T10:02:13.694Z,100873.00
2022-11-02T10:05:05.093Z,100871.00
2022-11-02T10:07:56.777Z,100868.00
2022-11-02T10:10:23.171Z,100862.00
2022-11-02T10:13:02.501Z,100871.00
2022-11-02T10:15:38.292Z,100873.00
2022-11-02T10:18:05.779Z,100862.00
2022-11-02T10:20:40.299Z,100866.00
2022-11-02T10:23:09.011Z,100872.00
2022-11-02T10:25:36.243Z,100867.00
2022-11-02T10:28:16.787Z,100869.00
2022-11-02T10:30:44.281Z,100868.00
2022-11-02T10:33:15.553Z,100866.00
2022-11-02T10:36:04.895Z,100862.00
2022-11-02T10:39:00.889Z,100881.00
2022-11-02T10:42:04.883Z,100880.00
2022-11-02T10:44:53.188Z,100879.00
2022-11-02T10:47:24.998Z,100873.00
2022-11-02T10:50:12.483Z,100868.00
2022-11-02T10:52:42.296Z,100879.00
2022-11-02T10:55:34.323Z,100873.00
2022-11-02T10:58:04.275Z,100880.00
2022-11-02T11:00:33.992Z,100873.00
2022-11-02T11:03:13.613Z,100876.00
2022-11-02T11:05:52.758Z,100885.00
2022-11-02T11:08:37.481Z,100879.00
2022-11-02T11:11:12.955Z,100884.00
2022-11-02T11:16:35.367Z,100887.00
2022-11-02T11:21:51.891Z,100883.00
2022-11-02T11:24:30.208Z,100884.00
2022-11-02T11:27:20.856Z,100894.00
2022-11-02T11:29:54.709Z,100900.00
2022-11-02T11:32:30.179Z,100907.00
2022-11-02T11:35:02.926Z,100906.00
2022-11-02T11:37:29.789Z,100904.00
2022-11-02T11:40:00.049Z,100901.00
2022-11-02T11:42:29.152Z,100897.00
2022-11-02T11:45:03.469Z,100893.00
2022-11-02T11:47:34.350Z,100905.00
2022-11-02T11:50:12.891Z,100902.00
2022-11-02T11:52:46.906Z,100900.00
2022-11-02T11:55:31.656Z,100909.00
2022-11-02T11:58:25.358Z,100912.00
2022-11-02T12:01:17.635Z,100901.00
2022-11-02T12:04:01.150Z,100897.00
2022-11-02T12:06:50.690Z,100897.00
2022-11-02T12:09:28.091Z,100897.00
2022-11-02T12:12:09.669Z,100899.00
2022-11-02T12:15:05.625Z,100905.00
2022-11-02T12:17:59.508Z,100898.00
2022-11-02T12:20:53.675Z,100901.00
2022-11-02T12:23:38.895Z,100903.00
2022-11-02T12:26:18.321Z,100905.00
2022-11-02T12:29:06.211Z,100902.00
2022-11-02T12:31:40.069Z,100911.00
2022-11-02T12:34:37.308Z,100896.00
2022-11-02T12:40:44.347Z,100899.00
2022-11-02T12:43:43.936Z,100896.00
2022-11-02T12:46:20.941Z,100893.00
2022-11-02T12:49:05.754Z,100897.00
2022-11-02T12:52:09.522Z,100895.00
2022-11-02T12:54:43.344Z,100898.00
2022-11-02T12:57:15.519Z,100892.00
2022-11-02T12:59:43.784Z,100896.00
2022-11-02T13:02:15.157Z,100889.00
2022-11-02T13:04:50.251Z,100901.00
2022-11-02T13:07:22.434Z,100906.00
2022-11-02T13:10:03.529Z,100895.00
2022-11-02T13:12:32.642Z,100905.00
2022-11-02T13:15:00.049Z,100904.00
2022-11-02T13:17:40.667Z,100896.00
2022-11-02T13:20:16.173Z,100899.00
2022-11-02T13:22:43.999Z,100900.00
2022-11-02T13:25:22.294Z,100896.00
2022-11-02T13:27:52.226Z,100909.00
2022-11-02T13:30:19.572Z,100904.00
2022-11-02T13:33:12.658Z,100907.00
2022-11-02T13:35:41.074Z,100903.00
2022-11-02T13:38:20.738Z,100909.00
2022-11-02T13:40:50.142Z,100912.00
2022-11-02T13:43:42.773Z,100909.00
2022-11-02T13:46:17.644Z,100907.00
2022-11-02T13:48:51.548Z,100911.00
2022-11-02T13:51:28.182Z,100903.00
2022-11-02T13:54:20.137Z,100913.00
2022-11-02T13:56:47.790Z,100900.00
2022-11-02T13:59:42.043Z,100906.00
2022-11-02T14:02:15.413Z,100908.00
2022-11-02T14:04:43.253Z,100908.00
2022-11-02T14:07:22.073Z,100906.00
2022-11-02T14:09:48.536Z,100906.00
2022-11-02T14:12:21.264Z,100909.00
2022-11-02T14:15:12.707Z,100911.00
2022-11-02T14:17:54.916Z,100902.00
2022-11-02T14:20:43.019Z,100907.00
2022-11-02T14:23:09.496Z,100906.00
2022-11-02T14:25:45.098Z,100909.00
2022-11-02T14:28:20.588Z,100920.00
2022-11-02T14:30:49.006Z,100919.00
2022-11-02T14:33:22.882Z,100932.00
2022-11-02T14:36:01.524Z,100932.00
2022-11-02T14:38:50.420Z,100925.00
2022-11-02T14:41:19.826Z,100939.00
2022-11-02T14:44:01.451Z,100931.00
2022-11-02T14:46:53.514Z,100930.00
2022-11-02T14:49:24.047Z,100949.00
2022-11-02T14:52:04.693Z,100958.00
2022-11-02T14:54:33.739Z,100948.00
2022-11-02T14:57:06.546Z,100960.00
2022-11-02T14:59:40.804Z,100957.00
2022-11-02T15:02:12.526Z,100966.00
2022-11-02T15:04:48.986Z,100969.00
2022-11-02T15:07:40.561Z,100976.00
2022-11-02T15:10:32.509Z,100977.00
2022-11-02T15:13:20.960Z,100986.00
2022-11-02T15:15:50.536Z,100982.00
2022-11-02T15:18:29.176Z,100989.00
2022-11-02T15:21:11.054Z,100989.00
2022-11-02T15:23:43.554Z,100985.00
2022-11-02T15:26:16.269Z,100987.00
2022-11-02T15:28:44.178Z,100983.00
2022-11-02T15:31:25.825Z,100988.00
2022-11-02T15:33:55.378Z,100992.00
2022-11-02T15:36:23.016Z,100995.00
2022-11-02T15:38:51.603Z,101000.00
2022-11-02T15:41:30.195Z,100996.00
2022-11-02T15:44:09.110Z,101003.00
2022-11-02T15:46:44.795Z,101015.00
2022-11-02T15:49:26.093Z,101007.00
2022-11-02T15:52:00.629Z,101015.00
2022-11-02T15:54:49.011Z,101013.00
2022-11-02T15:57:19.751Z,101018.00
2022-11-02T15:59:59.708Z,101023.00
2022-11-02T16:02:28.422Z,101025.00
2022-11-02T16:04:59.660Z,101032.00
2022-11-02T16:07:33.461Z,101021.00
2022-11-02T16:10:27.154Z,101028.00
2022-11-02T16:13:14.301Z,101033.00
2022-11-02T16:15:44.702Z,101030.00
2022-11-02T16:18:29.091Z,101033.00
2022-11-02T16:21:00.722Z,101035.00
2022-11-02T16:23:29.248Z,101027.00
2022-11-02T16:25:57.384Z,101028.00
2022-11-02T16:28:31.982Z,101031.00
2022-11-02T16:31:12.507Z,101035.00
2022-11-02T16:33:47.135Z,101042.00
2022-11-02T16:36:17.940Z,101041.00
2022-11-02T16:39:17.709Z,101040.00
2022-11-02T16:41:49.449Z,101049.00
2022-11-02T16:44:29.668Z,101049.00
2022-11-02T16:47:08.302Z,101059.00
2022-11-02T16:49:42.793Z,101057.00
2022-11-02T16:52:33.726Z,101059.00
2022-11-02T16:55:00.734Z,101059.00
2022-11-02T16:57:31.845Z,101059.00
2022-11-02T17:00:01.222Z,101062.00
2022-11-02T17:02:47.940Z,101067.00
2022-11-02T17:05:16.839Z,101073.00
2022-11-02T17:07:48.803Z,101075.00
2022-11-02T17:10:20.792Z,101074.00
2022-11-02T17:12:48.020Z,101073.00
2022-11-02T17:15:25.789Z,101078.00
2022-11-02T17:18:07.805Z,101087.00
2022-11-02T17:20:35.783Z,101082.00
2022-11-02T17:23:04.165Z,101080.00
2022-11-02T17:25:33.335Z,101079.00
2022-11-02T17:28:01.823Z,101088.00
2022-11-02T17:30:34.509Z,101090.00
2022-11-02T17:33:08.499Z,101087.00
2022-11-02T17:35:35.190Z,101093.00
2022-11-02T17:38:02.643Z,101088.00
2022-11-02T17:40:29.471Z,101094.00
2022-11-02T17:42:59.656Z,101096.00
2022-11-02T17:45:30.970Z,101107.00
2022-11-02T17:47:58.990Z,101096.00
2022-11-02T17:50:27.138Z,101090.00
2022-11-02T17:52:54.084Z,101110.00
2022-11-02T17:55:29.062Z,101114.00
2022-11-02T17:57:56.932Z,101117.00
2022-11-02T18:00:24.382Z,101117.00
2022-11-02T18:03:01.559Z,101110.00
2022-11-02T18:05:38.007Z,101114.00
2022-11-02T18:08:06.459Z,101118.00
2022-11-02T18:10:44.089Z,101115.00
2022-11-02T18:13:19.972Z,101118.00
2022-11-02T18:15:46.877Z,101116.00
2022-11-02T18:18:13.326Z,101117.00
2022-11-02T18:20:42.053Z,101115.00
2022-11-02T18:23:19.707Z,101122.00
2022-11-02T18:25:46.568Z,101119.00
2022-11-02T18:28:13.903Z,101124.00
2022-11-02T18:30:42.872Z,101129.00
2022-11-02T18:33:13.508Z,101128.00
2022-11-02T18:35:40.387Z,101136.00
2022-11-02T18:38:07.238Z,101123.00
2022-11-02T18:40:35.634Z,101131.00
2022-11-02T18:43:02.387Z,101129.00
2022-11-02T18:48:00.979Z,101133.00
2022-11-02T18:50:29.380Z,101121.00
2022-11-02T18:52:55.927Z,101133.00
2022-11-02T18:55:22.395Z,101136.00
2022-11-02T18:57:50.759Z,101129.00
2022-11-02T19:00:17.712Z,101129.00
2022-11-02T19:02:44.249Z,101130.00
2022-11-02T19:05:30.731Z,101135.00
2022-11-02T19:08:18.936Z,101135.00
2022-11-02T19:10:47.363Z,101134.00
2022-11-02T19:13:13.884Z,101137.00
2022-11-02T19:15:42.683Z,101139.00
2022-11-02T19:18:09.603Z,101132.00
2022-11-02T19:20:36.111Z,101136.00
2022-11-02T19:23:02.714Z,101134.00
2022-11-02T19:25:29.136Z,101133.00
2022-11-02T19:27:55.668Z,101133.00
2022-11-02T19:30:22.133Z,101132.00
2022-11-02T19:32:48.674Z,101136.00
2022-11-02T19:35:18.302Z,101145.00
2022-11-02T19:37:44.795Z,101144.00
2022-11-02T19:40:12.459Z,101144.00
2022-11-02T19:42:39.718Z,101137.00
2022-11-02T19:45:06.442Z,101125.00
2022-11-02T19:47:33.923Z,101128.00
2022-11-02T19:50:00.406Z,101132.00
2022-11-02T19:52:26.942Z,101149.00
2022-11-02T19:54:53.465Z,101146.00
2022-11-02T19:57:19.938Z,101146.00
2022-11-02T19:59:46.728Z,101147.00
2022-11-02T20:02:13.261Z,101162.00
2022-11-02T20:04:42.562Z,101153.00
2022-11-02T20:07:09.327Z,101153.00
2022-11-02T20:09:35.952Z,101157.00
2022-11-02T20:12:04.245Z,101165.00
2022-11-02T20:14:30.967Z,101164.00
2022-11-02T20:17:10.592Z,101154.00
2022-11-02T20:19:44.168Z,101146.00
2022-11-02T20:22:10.622Z,101161.00
2022-11-02T20:24:39.514Z,101167.00
2022-11-02T20:27:07.045Z,101168.00
2022-11-02T20:29:33.598Z,101172.00
2022-11-02T20:32:00.107Z,101167.00
2022-11-02T20:34:26.551Z,101173.00
2022-11-02T20:36:53.123Z,101170.00
2022-11-02T20:39:22.490Z,101172.00
2022-11-02T20:41:52.601Z,101177.00
2022-11-02T20:44:20.784Z,101172.00
2022-11-02T20:46:52.683Z,101173.00
2022-11-02T20:49:22.275Z,101171.00
2022-11-02T20:51:56.036Z,101174.00
2022-11-02T20:54:22.874Z,101175.00
2022-11-02T20:56:50.014Z,101177.00
2022-11-02T20:59:17.273Z,101173.00
2022-11-02T21:01:43.994Z,101184.00
2022-11-02T21:04:15.327Z,101177.00
2022-11-02T21:06:46.154Z,101176.00
2022-11-02T21:09:12.891Z,101174.00
2022-11-02T21:11:58.021Z,101180.00
2022-11-02T21:14:24.729Z,101169.00
2022-11-02T21:16:51.244Z,101179.00
2022-11-02T21:19:17.806Z,101186.00
2022-11-02T21:21:44.953Z,101180.00
2022-11-02T21:24:11.547Z,101182.00
2022-11-02T21:26:38.092Z,101183.00
2022-11-02T21:29:04.591Z,101176.00
2022-11-02T21:31:31.116Z,101185.00
2022-11-02T21:33:57.594Z,101183.00
2022-11-02T21:36:24.078Z,101178.00
2022-11-02T21:38:50.879Z,101186.00
2022-11-02T21:41:19.806Z,101185.00
2022-11-02T21:43:46.363Z,101184.00
2022-11-02T21:46:12.942Z,101180.00
2022-11-02T21:48:39.565Z,101183.00
2022-11-02T21:51:11.913Z,101188.00
2022-11-02T21:53:40.534Z,101181.00
2022-11-02T21:56:08.126Z,101178.00
2022-11-02T21:58:35.274Z,101182.00
2022-11-02T22:01:25.970Z,101179.00
2022-11-02T22:03:52.707Z,101176.00
2022-11-02T22:06:20.991Z,101177.00
2022-11-02T22:08:48.264Z,101170.00
2022-11-02T22:11:16.910Z,101170.00
2022-11-02T22:13:46.304Z,101170.00
2022-11-02T22:16:17.975Z,101171.00
2022-11-02T22:18:45.784Z,101168.00
2022-11-02T22:21:12.934Z,101165.00
2022-11-02T22:23:39.938Z,101170.00
2022-11-02T22:26:09.633Z,101164.00
2022-11-02T22:28:38.423Z,101170.00
2022-11-02T22:31:10.459Z,101167.00
2022-11-02T22:33:37.294Z,101166.00
2022-11-02T22:36:05.744Z,101164.00
2022-11-02T22:38:51.251Z,101166.00
2022-11-02T22:41:20.763Z,101163.00
2022-11-02T22:43:47.645Z,101159.00
2022-11-02T22:46:14.807Z,101159.00
2022-11-02T22:48:41.736Z,101163.00
2022-11-02T22:51:08.693Z,101156.00
2022-11-02T22:53:35.321Z,101158.00
2022-11-02T22:56:03.619Z,101157.00
2022-11-02T22:58:31.394Z,101161.00
2022-11-02T23:00:57.965Z,101155.00
2022-11-02T23:03:24.786Z,101151.00
2022-11-02T23:05:51.533Z,101161.00
2022-11-02T23:08:18.907Z,101162.00
2022-11-02T23:11:04.293Z,101149.00
2022-11-02T23:13:30.874Z,101158.00
2022-11-02T23:16:23.204Z,101159.00
2022-11-02T23:19:22.035Z,101154.00
2022-11-02T23:22:22.793Z,101163.00
2022-11-02T23:25:12.463Z,101155.00
2022-11-02T23:28:16.720Z,101149.00
2022-11-02T23:31:02.327Z,101145.00
2022-11-02T23:33:33.811Z,101142.00
2022-11-02T23:36:13.660Z,101138.00
2022-11-02T23:39:02.841Z,101150.00
2022-11-02T23:41:30.579Z,101139.00
2022-11-02T23:44:13.970Z,101138.00
2022-11-02T23:46:41.785Z,101138.00
2022-11-02T23:49:08.529Z,101132.00
2022-11-02T23:51:53.664Z,101138.00
2022-11-02T23:54:39.115Z,101139.00
2022-11-02T23:57:05.782Z,101128.00
2022-11-02T23:59:32.285Z,101125.00
